Time;durP1;ratioP1;P1;durP2;ratioP2;P2;SDS_P1;SDS_P2;PMS_P1;PMS_P2;Temp;Humidity;BMP_temperature;BMP_pressure;BME280_temperature;BME280_humidity;BME280_pressure;Samples;Min_cycle;Max_cycle;Signal;HPM_P1;HPM_P2
2023/09/10 00:00:09;;;;;;;;;;;;;;;;;;1046695;28;3093;-53
2023/09/10 00:01:00;;;;;;;;;;;;;;;;;;1043335;28;4045;-53
2023/09/10 00:01:50;;;;;;;;;;;;;;;;;;1041700;28;3999;-52
2023/09/10 00:02:21;;;;;;;;;;;;;;;;;;1041884;28;3166;-52
2023/09/10 00:02:51;;;;;;;;;;;;;;;;;;1039963;28;3951;-54
2023/09/10 00:03:21;;;;;;;;;;;;;;;;;;1044378;28;3050;-56
2023/09/10 00:03:51;;;;;;;;;;;;;;;;;;1046568;28;4103;-52
2023/09/10 00:04:22;;;;;;;;;;;;;;;;;;1046251;28;3080;-53
2023/09/10 00:04:52;;;;;;;;;;;;;;;;;;1045514;28;3864;-52
2023/09/10 00:05:22;;;;;;;;;;;;;;;;;;1046653;28;2796;-53
2023/09/10 00:05:53;;;;;;;;;;;;;;;;;;1047823;28;3727;-52
2023/09/10 00:06:23;;;;;;;;;;;;;;;;;;1045695;28;2995;-57
2023/09/10 00:06:53;;;;;;;;;;;;;;;;;;1045334;28;4009;-55
2023/09/10 00:07:24;;;;;;;;;;;;;;;;;;1046351;28;2989;-54
2023/09/10 00:07:54;;;;;;;;;;;;;;;;;;1046516;28;3729;-51
2023/09/10 00:08:24;;;;;;;;;;;;;;;;;;1045497;28;3704;-54
2023/09/10 00:08:54;;;;;;;;;;;;;;;;;;1045832;28;3969;-55
2023/09/10 00:09:25;;;;;;;;;;;;;;;;;;1046956;28;3007;-56
2023/09/10 00:09:55;;;;;;;;;;;;;;;;;;1046250;28;4142;-55
2023/09/10 00:10:25;;;;;;;;;;;;;;;;;;1047635;28;3064;-55
2023/09/10 00:10:58;;;;;;;;;;;;;;;;;;1041044;28;3816;-58
2023/09/10 00:11:30;;;;;;;;;;;;;;;;;;1043732;28;1637;-51
2023/09/10 00:12:00;;;;;;;;;;;;;;;;;;1041084;28;3937;-54
2023/09/10 00:12:31;;;;;;;;;;;;;;;;;;1043378;28;4049;-52
2023/09/10 00:13:02;;;;;;;;;;;;;;;;;;1044185;28;3115;-51
2023/09/10 00:13:33;;;;;;;;;;;;;;;;;;1046274;28;3774;-51
2023/09/10 00:14:03;;;;;;;;;;;;;;;;;;1046036;28;3089;-52
2023/09/10 00:14:33;;;;;;;;;;;;;;;;;;1044964;28;3801;-55
2023/09/10 00:15:04;;;;;;;;;;;;;;;;;;1043402;28;3211;-51
2023/09/10 00:15:34;;;;;;;;;;;;;;;;;;1046439;28;3829;-48
2023/09/10 00:16:05;;;;;;;;;;;;;;;;;;1046338;28;3054;-52
2023/09/10 00:16:35;;;;;;;;;;;;;;;;;;1046029;28;3871;-52
2023/09/10 00:17:05;;;;;;;;;;;;;;;;;;1046980;28;2803;-53
2023/09/10 00:17:35;;;;;;;;;;;;;;;;;;1045228;28;4071;-52
2023/09/10 00:18:06;;;;;;;;;;;;;;;;;;1043799;28;5504;-53
2023/09/10 00:18:36;;;;;;;;;;;;;;;;;;1045841;28;3812;-50
2023/09/10 00:19:06;;;;;;;;;;;;;;;;;;1047012;28;2309;-55
2023/09/10 00:19:37;;;;;;;;;;;;;;;;;;1047568;28;4215;-53
2023/09/10 00:20:08;;;;;;;;;;;;;;;;;;1044617;28;3224;-50
2023/09/10 00:20:39;;;;;;;;;;;;;;;;;;1047491;28;3924;-51
2023/09/10 00:21:09;;;;;;;;;;;;;;;;;;1045284;28;3102;-54
2023/09/10 00:21:39;;;;;;;;;;;;;;;;;;1046004;28;4055;-52
2023/09/10 00:22:10;;;;;;;;;;;;;;;;;;1045672;28;3574;-53
2023/09/10 00:22:42;;;;;;;;;;;;;;;;;;1044486;28;3760;-52
2023/09/10 00:23:13;;;;;;;;;;;;;;;;;;1045817;28;3744;-52
2023/09/10 00:23:44;;;;;;;;;;;;;;;;;;1045791;28;4178;-52
2023/09/10 00:24:14;;;;;;;;;;;;;;;;;;1046636;28;3654;-58
2023/09/10 00:24:44;;;;;;;;;;;;;;;;;;1046623;28;3866;-55
2023/09/10 00:25:15;;;;;;;;;;;;;;;;;;1050886;28;3158;-54
2023/09/10 00:25:45;;;;;;;;;;;;;;;;;;1050540;28;3870;-54
2023/09/10 00:26:16;;;;;;;;;;;;;;;;;;1050614;28;3271;-51
2023/09/10 00:26:46;;;;;;;;;;;;;;;;;;1046397;28;3849;-53
2023/09/10 00:27:16;;;;;;;;;;;;;;;;;;1046472;28;2999;-55
2023/09/10 00:27:47;;;;;;;;;;;;;;;;;;1044804;28;4341;-56
2023/09/10 00:28:17;;;;;;;;;;;;;;;;;;1046041;28;3348;-57
2023/09/10 00:28:49;;;;;;;;;;;;;;;;;;1046810;28;3739;-55
2023/09/10 00:29:20;;;;;;;;;;;;;;;;;;1045296;28;4220;-52
2023/09/10 00:29:50;;;;;;;;;;;;;;;;;;1047067;28;3829;-51
2023/09/10 00:30:20;;;;;;;;;;;;;;;;;;1043994;28;3512;-54
2023/09/10 00:30:51;;;;;;;;;;;;;;;;;;1045876;28;3818;-56
2023/09/10 00:31:22;;;;;;;;;;;;;;;;;;1049439;28;2882;-52
2023/09/10 00:31:52;;;;;;;;;;;;;;;;;;1048540;28;3849;-57
2023/09/10 00:32:23;;;;;;;;;;;;;;;;;;1042317;28;3066;-51
2023/09/10 00:32:54;;;;;;;;;;;;;;;;;;1038638;28;3834;-50
2023/09/10 00:33:25;;;;;;;;;;;;;;;;;;1033193;28;3203;-54
2023/09/10 00:33:55;;;;;;;;;;;;;;;;;;1029797;28;3769;-56
2023/09/10 00:34:29;;;;;;;;;;;;;;;;;;1039398;28;1842;-57
2023/09/10 00:34:59;;;;;;;;;;;;;;;;;;1038346;28;3664;-51
2023/09/10 00:35:30;;;;;;;;;;;;;;;;;;1047910;28;1378;-53
2023/09/10 00:36:00;;;;;;;;;;;;;;;;;;1046353;28;3705;-55
2023/09/10 00:36:31;;;;;;;;;;;;;;;;;;1047936;28;3145;-52
2023/09/10 00:37:01;;;;;;;;;;;;;;;;;;1044566;28;3827;-56
2023/09/10 00:37:31;;;;;;;;;;;;;;;;;;1045137;28;3908;-55
2023/09/10 00:38:02;;;;;;;;;;;;;;;;;;1047198;28;2976;-55
2023/09/10 00:38:33;;;;;;;;;;;;;;;;;;1045443;28;3772;-53
2023/09/10 00:39:04;;;;;;;;;;;;;;;;;;1047706;28;3687;-52
2023/09/10 00:39:34;;;;;;;;;;;;;;;;;;1046530;28;3954;-54
2023/09/10 00:40:05;;;;;;;;;;;;;;;;;;1046314;28;3380;-48
2023/09/10 00:40:35;;;;;;;;;;;;;;;;;;1046706;28;4036;-54
2023/09/10 00:41:07;;;;;;;;;;;;;;;;;;1045065;28;3027;-53
2023/09/10 00:41:37;;;;;;;;;;;;;;;;;;1046220;28;3933;-54
2023/09/10 00:42:09;;;;;;;;;;;;;;;;;;1047487;28;1716;-54
2023/09/10 00:42:39;;;;;;;;;;;;;;;;;;1046308;28;3987;-58
2023/09/10 00:43:09;;;;;;;;;;;;;;;;;;1047898;28;1343;-48
2023/09/10 00:43:40;;;;;;;;;;;;;;;;;;1051228;28;3852;-54
2023/09/10 00:44:10;;;;;;;;;;;;;;;;;;1050285;28;1897;-49
2023/09/10 00:44:41;;;;;;;;;;;;;;;;;;1050136;28;4378;-54
2023/09/10 00:45:12;;;;;;;;;;;;;;;;;;1050367;28;2693;-55
2023/09/10 00:45:42;;;;;;;;;;;;;;;;;;1047412;28;4023;-54
2023/09/10 00:46:13;;;;;;;;;;;;;;;;;;1046488;28;3076;-55
2023/09/10 00:46:43;;;;;;;;;;;;;;;;;;1047151;28;3869;-56
2023/09/10 00:47:13;;;;;;;;;;;;;;;;;;1047106;28;1972;-51
2023/09/10 00:47:44;;;;;;;;;;;;;;;;;;1046662;28;3851;-57
2023/09/10 00:48:15;;;;;;;;;;;;;;;;;;1045168;28;1566;-48
2023/09/10 00:48:45;;;;;;;;;;;;;;;;;;1046703;28;4029;-56
2023/09/10 00:49:16;;;;;;;;;;;;;;;;;;1046745;28;3051;-52
2023/09/10 00:49:46;;;;;;;;;;;;;;;;;;1044808;28;4257;-55
2023/09/10 00:50:17;;;;;;;;;;;;;;;;;;1046212;28;3240;-54
2023/09/10 00:50:47;;;;;;;;;;;;;;;;;;1045002;28;4394;-55
2023/09/10 00:51:18;;;;;;;;;;;;;;;;;;1045953;28;3053;-52
2023/09/10 00:51:49;;;;;;;;;;;;;;;;;;1044435;28;3944;-53
2023/09/10 00:52:21;;;;;;;;;;;;;;;;;;1047471;28;3191;-55
2023/09/10 00:52:54;;;;;;;;;;;;;;;;;;1045981;28;4036;-54
2023/09/10 00:53:25;;;;;;;;;;;;;;;;;;1045304;28;3181;-49
2023/09/10 00:53:55;;;;;;;;;;;;;;;;;;1046098;28;3984;-48
2023/09/10 00:54:30;;;;;;;;;;;;;;;;;;1045515;28;3175;-55
2023/09/10 00:55:00;;;;;;;;;;;;;;;;;;1045367;28;3899;-52
2023/09/10 00:55:32;;;;;;;;;;;;;;;;;;1045334;28;3319;-55
2023/09/10 00:56:03;;;;;;;;;;;;;;;;;;1045166;28;3781;-51
2023/09/10 00:56:33;;;;;;;;;;;;;;;;;;1045330;28;4016;-55
2023/09/10 00:57:04;;;;;;;;;;;;;;;;;;1044311;28;3353;-57
2023/09/10 00:57:35;;;;;;;;;;;;;;;;;;1043758;28;3959;-58
2023/09/10 00:58:05;;;;;;;;;;;;;;;;;;1046754;28;2923;-56
2023/09/10 00:58:35;;;;;;;;;;;;;;;;;;1046113;28;4024;-53
2023/09/10 00:59:08;;;;;;;;;;;;;;;;;;1045361;28;3460;-51
2023/09/10 00:59:39;;;;;;;;;;;;;;;;;;1045717;28;4157;-50
2023/09/10 01:00:10;;;;;;;;;;;;;;;;;;1045496;28;3180;-54
2023/09/10 01:00:44;;;;;;;;;;;;;;;;;;1045912;28;3974;-50
2023/09/10 01:01:15;;;;;;;;;;;;;;;;;;1045083;28;3080;-56
2023/09/10 01:01:45;;;;;;;;;;;;;;;;;;1043751;28;4094;-52
2023/09/10 01:02:16;;;;;;;;;;;;;;;;;;1047170;28;2752;-52
2023/09/10 01:02:46;;;;;;;;;;;;;;;;;;1047207;28;3837;-53
2023/09/10 01:03:17;;;;;;;;;;;;;;;;;;1046112;28;3358;-53
2023/09/10 01:03:48;;;;;;;;;;;;;;;;;;1047248;28;3951;-55
2023/09/10 01:04:20;;;;;;;;;;;;;;;;;;1044740;28;3150;-54
2023/09/10 01:04:51;;;;;;;;;;;;;;;;;;1046018;28;3980;-51
2023/09/10 01:05:21;;;;;;;;;;;;;;;;;;1047099;28;1902;-53
2023/09/10 01:05:51;;;;;;;;;;;;;;;;;;1047413;28;5427;-48
2023/09/10 01:06:22;;;;;;;;;;;;;;;;;;1045231;28;2752;-53
2023/09/10 01:06:52;;;;;;;;;;;;;;;;;;1044224;28;4054;-54
2023/09/10 01:07:22;;;;;;;;;;;;;;;;;;1045642;28;3178;-51
2023/09/10 01:07:53;;;;;;;;;;;;;;;;;;1044891;28;3755;-54
2023/09/10 01:08:24;;;;;;;;;;;;;;;;;;1044388;28;3214;-50
2023/09/10 01:08:54;;;;;;;;;;;;;;;;;;1046416;28;3695;-49
2023/09/10 01:09:24;;;;;;;;;;;;;;;;;;1047367;28;1800;-55
2023/09/10 01:09:55;;;;;;;;;;;;;;;;;;1043908;28;3751;-53
2023/09/10 01:10:29;;;;;;;;;;;;;;;;;;1044880;28;3628;-52
2023/09/10 01:11:08;;;;;;;;;;;;;;;;;;1045012;28;3706;-48
2023/09/10 01:11:59;;;;;;;;;;;;;;;;;;1042440;28;4017;-51
2023/09/10 01:12:32;;;;;;;;;;;;;;;;;;1040031;28;3051;-50
2023/09/10 01:13:09;;;;;;;;;;;;;;;;;;1040967;28;3799;-55
2023/09/10 01:14:02;;;;;;;;;;;;;;;;;;1047232;28;3785;-50
2023/09/10 01:14:35;;;;;;;;;;;;;;;;;;1042612;28;3969;-56
2023/09/10 01:15:13;;;;;;;;;;;;;;;;;;1045355;28;3462;-55
2023/09/10 01:15:51;;;;;;;;;;;;;;;;;;1045911;28;3945;-51
2023/09/10 01:16:24;;;;;;;;;;;;;;;;;;1045953;28;3168;-51
2023/09/10 01:17:00;;;;;;;;;;;;;;;;;;1045927;28;4191;-53
2023/09/10 01:17:40;;;;;;;;;;;;;;;;;;1044806;28;3257;-50
2023/09/10 01:18:10;;;;;;;;;;;;;;;;;;1046069;28;3843;-51
2023/09/10 01:18:45;;;;;;;;;;;;;;;;;;1045528;28;4008;-55
2023/09/10 01:19:21;;;;;;;;;;;;;;;;;;1045041;28;3259;-54
2023/09/10 01:19:59;;;;;;;;;;;;;;;;;;1043610;28;3878;-55
2023/09/10 01:20:32;;;;;;;;;;;;;;;;;;1046473;28;1743;-52
2023/09/10 01:21:21;;;;;;;;;;;;;;;;;;1040719;28;3729;-50
2023/09/10 01:21:55;;;;;;;;;;;;;;;;;;1041114;28;4029;-53
2023/09/10 01:22:33;;;;;;;;;;;;;;;;;;1042356;28;3156;-51
2023/09/10 01:23:07;;;;;;;;;;;;;;;;;;1044245;28;3826;-54
2023/09/10 01:23:48;;;;;;;;;;;;;;;;;;1045683;28;4018;-55
2023/09/10 01:24:34;;;;;;;;;;;;;;;;;;1046033;28;3091;-49
2023/09/10 01:25:05;;;;;;;;;;;;;;;;;;1045873;28;3987;-50
2023/09/10 01:25:36;;;;;;;;;;;;;;;;;;1041088;28;4020;-52
2023/09/10 01:26:06;;;;;;;;;;;;;;;;;;1036888;28;3345;-55
2023/09/10 01:26:37;;;;;;;;;;;;;;;;;;1039350;28;4049;-52
2023/09/10 01:27:07;;;;;;;;;;;;;;;;;;1041584;28;3089;-55
2023/09/10 01:27:37;;;;;;;;;;;;;;;;;;1043762;28;4232;-53
2023/09/10 01:28:07;;;;;;;;;;;;;;;;;;1045841;28;3112;-58
2023/09/10 01:28:38;;;;;;;;;;;;;;;;;;1044705;28;4439;-57
2023/09/10 01:29:13;;;;;;;;;;;;;;;;;;1044938;28;2941;-51
2023/09/10 01:29:43;;;;;;;;;;;;;;;;;;1044780;28;4148;-53
2023/09/10 01:30:14;;;;;;;;;;;;;;;;;;1046455;28;3166;-51
2023/09/10 01:30:44;;;;;;;;;;;;;;;;;;1040094;28;4082;-50
2023/09/10 01:31:14;;;;;;;;;;;;;;;;;;1038496;28;3458;-49
2023/09/10 01:31:49;;;;;;;;;;;;;;;;;;1039892;28;4016;-51
2023/09/10 01:32:26;;;;;;;;;;;;;;;;;;1041759;28;3152;-49
2023/09/10 01:33:01;;;;;;;;;;;;;;;;;;1044361;28;4063;-53
2023/09/10 01:33:35;;;;;;;;;;;;;;;;;;1045736;28;4019;-53
2023/09/10 01:34:06;;;;;;;;;;;;;;;;;;1045315;28;3218;-49
2023/09/10 01:34:38;;;;;;;;;;;;;;;;;;1044339;28;4103;-55
2023/09/10 01:35:17;;;;;;;;;;;;;;;;;;1044757;28;3332;-52
2023/09/10 01:35:52;;;;;;;;;;;;;;;;;;1044753;28;3923;-54
2023/09/10 01:36:31;;;;;;;;;;;;;;;;;;1045599;28;3113;-50
2023/09/10 01:37:06;;;;;;;;;;;;;;;;;;1040201;28;3621;-52
2023/09/10 01:37:40;;;;;;;;;;;;;;;;;;1040782;28;4049;-55
2023/09/10 01:38:20;;;;;;;;;;;;;;;;;;1039966;28;3015;-53
2023/09/10 01:38:56;;;;;;;;;;;;;;;;;;1040285;28;4086;-51
2023/09/10 01:39:36;;;;;;;;;;;;;;;;;;1043154;28;1786;-54
2023/09/10 01:40:08;;;;;;;;;;;;;;;;;;1040482;28;3838;-54
2023/09/10 01:40:42;;;;;;;;;;;;;;;;;;1041235;28;4121;-54
2023/09/10 01:41:13;;;;;;;;;;;;;;;;;;1046322;28;1682;-54
2023/09/10 01:41:46;;;;;;;;;;;;;;;;;;1046953;28;4044;-54
2023/09/10 01:42:16;;;;;;;;;;;;;;;;;;1046710;28;1961;-51
2023/09/10 01:42:48;;;;;;;;;;;;;;;;;;1047173;28;3854;-51
2023/09/10 01:43:18;;;;;;;;;;;;;;;;;;1046918;28;1844;-53
2023/09/10 01:43:50;;;;;;;;;;;;;;;;;;1045804;28;4222;-54
2023/09/10 01:44:21;;;;;;;;;;;;;;;;;;1044476;28;3334;-51
2023/09/10 01:44:52;;;;;;;;;;;;;;;;;;1044062;28;3831;-53
2023/09/10 01:45:22;;;;;;;;;;;;;;;;;;1043716;28;3059;-53
2023/09/10 01:45:53;;;;;;;;;;;;;;;;;;1045173;28;4021;-50
2023/09/10 01:46:24;;;;;;;;;;;;;;;;;;1045254;28;3111;-51
2023/09/10 01:46:54;;;;;;;;;;;;;;;;;;1045909;28;4041;-50
2023/09/10 01:47:25;;;;;;;;;;;;;;;;;;1046599;28;1620;-52
2023/09/10 01:47:55;;;;;;;;;;;;;;;;;;1046425;28;3745;-53
2023/09/10 01:48:26;;;;;;;;;;;;;;;;;;1044851;28;3208;-58
2023/09/10 01:48:56;;;;;;;;;;;;;;;;;;1046394;28;3798;-51
2023/09/10 01:49:27;;;;;;;;;;;;;;;;;;1045848;28;3161;-52
2023/09/10 01:49:57;;;;;;;;;;;;;;;;;;1045567;28;4337;-49
2023/09/10 01:50:29;;;;;;;;;;;;;;;;;;1045158;28;2928;-51
2023/09/10 01:50:59;;;;;;;;;;;;;;;;;;1046471;28;3786;-53
2023/09/10 01:51:29;;;;;;;;;;;;;;;;;;1046623;28;3075;-54
2023/09/10 01:52:00;;;;;;;;;;;;;;;;;;1045755;28;3849;-53
2023/09/10 01:52:30;;;;;;;;;;;;;;;;;;1046582;28;3081;-55
2023/09/10 01:53:00;;;;;;;;;;;;;;;;;;1046806;28;4009;-53
2023/09/10 01:53:31;;;;;;;;;;;;;;;;;;1044252;28;3903;-51
2023/09/10 01:54:02;;;;;;;;;;;;;;;;;;1046962;28;3205;-49
2023/09/10 01:54:32;;;;;;;;;;;;;;;;;;1046444;28;3935;-52
2023/09/10 01:55:02;;;;;;;;;;;;;;;;;;1044880;28;3356;-58
2023/09/10 01:55:33;;;;;;;;;;;;;;;;;;1045090;28;3927;-55
2023/09/10 01:56:03;;;;;;;;;;;;;;;;;;1048741;28;1723;-53
2023/09/10 01:56:33;;;;;;;;;;;;;;;;;;1045576;28;3761;-49
2023/09/10 01:57:04;;;;;;;;;;;;;;;;;;1044313;28;3058;-58
2023/09/10 01:57:34;;;;;;;;;;;;;;;;;;1047089;28;3922;-53
2023/09/10 01:58:04;;;;;;;;;;;;;;;;;;1045294;28;3180;-53
2023/09/10 01:58:35;;;;;;;;;;;;;;;;;;1046591;28;4267;-56
2023/09/10 01:59:05;;;;;;;;;;;;;;;;;;1044562;28;3476;-55
2023/09/10 01:59:35;;;;;;;;;;;;;;;;;;1045752;28;3957;-55
2023/09/10 02:00:08;;;;;;;;;;;;;;;;;;1044085;28;3229;-53
2023/09/10 02:00:39;;;;;;;;;;;;;;;;;;1045122;28;3778;-52
2023/09/10 02:01:09;;;;;;;;;;;;;;;;;;1044746;28;3372;-52
2023/09/10 02:01:39;;;;;;;;;;;;;;;;;;1046828;28;4006;-51
2023/09/10 02:02:09;;;;;;;;;;;;;;;;;;1045299;28;3313;-55
2023/09/10 02:02:40;;;;;;;;;;;;;;;;;;1046140;28;3855;-51
2023/09/10 02:03:11;;;;;;;;;;;;;;;;;;1044698;28;3351;-54
2023/09/10 02:03:41;;;;;;;;;;;;;;;;;;1045827;28;3839;-56
2023/09/10 02:04:11;;;;;;;;;;;;;;;;;;1046424;28;3213;-55
2023/09/10 02:04:42;;;;;;;;;;;;;;;;;;1044456;28;3952;-56
2023/09/10 02:05:12;;;;;;;;;;;;;;;;;;1045176;28;4099;-51
2023/09/10 02:05:42;;;;;;;;;;;;;;;;;;1046098;28;4350;-54
2023/09/10 02:06:12;;;;;;;;;;;;;;;;;;1047396;28;2925;-53
2023/09/10 02:06:43;;;;;;;;;;;;;;;;;;1044597;28;3802;-52
2023/09/10 02:07:13;;;;;;;;;;;;;;;;;;1046161;28;1958;-55
2023/09/10 02:07:43;;;;;;;;;;;;;;;;;;1046325;28;4356;-55
2023/09/10 02:08:14;;;;;;;;;;;;;;;;;;1047459;28;1935;-52
2023/09/10 02:08:45;;;;;;;;;;;;;;;;;;1045921;28;3944;-54
2023/09/10 02:09:16;;;;;;;;;;;;;;;;;;1046610;28;3064;-52
2023/09/10 02:09:46;;;;;;;;;;;;;;;;;;1046416;28;4352;-54
2023/09/10 02:10:16;;;;;;;;;;;;;;;;;;1046915;28;2950;-54
2023/09/10 02:10:47;;;;;;;;;;;;;;;;;;1046521;28;3925;-56
2023/09/10 02:11:18;;;;;;;;;;;;;;;;;;1045983;28;3087;-55
2023/09/10 02:11:49;;;;;;;;;;;;;;;;;;1045703;28;3852;-52
2023/09/10 02:12:19;;;;;;;;;;;;;;;;;;1045466;28;3080;-54
2023/09/10 02:12:49;;;;;;;;;;;;;;;;;;1046649;28;4334;-55
2023/09/10 02:13:20;;;;;;;;;;;;;;;;;;1046591;28;1453;-52
2023/09/10 02:13:50;;;;;;;;;;;;;;;;;;1046854;28;4484;-54
2023/09/10 02:14:20;;;;;;;;;;;;;;;;;;1046499;28;3163;-54
2023/09/10 02:14:51;;;;;;;;;;;;;;;;;;1042612;28;3967;-53
2023/09/10 02:15:21;;;;;;;;;;;;;;;;;;1044356;28;3139;-52
2023/09/10 02:15:51;;;;;;;;;;;;;;;;;;1045129;28;4025;-54
2023/09/10 02:16:22;;;;;;;;;;;;;;;;;;1046840;28;3323;-53
2023/09/10 02:16:52;;;;;;;;;;;;;;;;;;1044847;28;3794;-52
2023/09/10 02:17:22;;;;;;;;;;;;;;;;;;1044497;28;3188;-50
2023/09/10 02:17:53;;;;;;;;;;;;;;;;;;1044628;28;3856;-53
2023/09/10 02:18:25;;;;;;;;;;;;;;;;;;1046045;28;3090;-52
2023/09/10 02:18:55;;;;;;;;;;;;;;;;;;1043399;28;4396;-54
2023/09/10 02:19:25;;;;;;;;;;;;;;;;;;1047580;28;1652;-51
2023/09/10 02:19:56;;;;;;;;;;;;;;;;;;1045553;28;3993;-53
2023/09/10 02:20:26;;;;;;;;;;;;;;;;;;1040217;28;3564;-51
2023/09/10 02:20:56;;;;;;;;;;;;;;;;;;1042328;28;4515;-52
2023/09/10 02:21:26;;;;;;;;;;;;;;;;;;1042252;28;1666;-55
2023/09/10 02:21:57;;;;;;;;;;;;;;;;;;1042824;28;3843;-49
2023/09/10 02:22:27;;;;;;;;;;;;;;;;;;1046843;28;1712;-53
2023/09/10 02:22:58;;;;;;;;;;;;;;;;;;1046088;28;3877;-54
2023/09/10 02:23:28;;;;;;;;;;;;;;;;;;1044881;28;3169;-53
2023/09/10 02:23:59;;;;;;;;;;;;;;;;;;1045654;28;4030;-57
2023/09/10 02:24:29;;;;;;;;;;;;;;;;;;1046608;28;1711;-46
2023/09/10 02:25:00;;;;;;;;;;;;;;;;;;1045442;28;3921;-51
2023/09/10 02:25:32;;;;;;;;;;;;;;;;;;1044489;28;3311;-50
2023/09/10 02:26:03;;;;;;;;;;;;;;;;;;1047422;28;3931;-51
2023/09/10 02:26:34;;;;;;;;;;;;;;;;;;1045669;28;4941;-52
2023/09/10 02:27:04;;;;;;;;;;;;;;;;;;1042463;28;3151;-51
2023/09/10 02:27:35;;;;;;;;;;;;;;;;;;1041765;28;4052;-56
2023/09/10 02:28:05;;;;;;;;;;;;;;;;;;1042681;28;1836;-49
2023/09/10 02:28:36;;;;;;;;;;;;;;;;;;1042888;28;4036;-52
2023/09/10 02:29:06;;;;;;;;;;;;;;;;;;1042504;28;1709;-54
2023/09/10 02:29:36;;;;;;;;;;;;;;;;;;1041884;28;3841;-55
2023/09/10 02:30:09;;;;;;;;;;;;;;;;;;1039102;28;3222;-55
2023/09/10 02:30:40;;;;;;;;;;;;;;;;;;1041496;28;3945;-55
2023/09/10 02:31:10;;;;;;;;;;;;;;;;;;1041691;28;1812;-51
2023/09/10 02:31:40;;;;;;;;;;;;;;;;;;1040022;28;3758;-53
2023/09/10 02:32:11;;;;;;;;;;;;;;;;;;1041109;28;2971;-54
2023/09/10 02:32:41;;;;;;;;;;;;;;;;;;1042374;28;3840;-50
2023/09/10 02:33:11;;;;;;;;;;;;;;;;;;1045778;28;3033;-51
2023/09/10 02:33:41;;;;;;;;;;;;;;;;;;1046954;28;3977;-55
2023/09/10 02:34:12;;;;;;;;;;;;;;;;;;1047255;28;3223;-51
2023/09/10 02:34:42;;;;;;;;;;;;;;;;;;1044701;28;3860;-56
2023/09/10 02:35:12;;;;;;;;;;;;;;;;;;1043950;28;3256;-54
2023/09/10 02:35:43;;;;;;;;;;;;;;;;;;1046482;28;3944;-55
2023/09/10 02:36:13;;;;;;;;;;;;;;;;;;1046447;28;3146;-52
2023/09/10 02:36:43;;;;;;;;;;;;;;;;;;1045672;28;3784;-51
2023/09/10 02:37:14;;;;;;;;;;;;;;;;;;1045633;28;3104;-53
2023/09/10 02:37:44;;;;;;;;;;;;;;;;;;1046161;28;4023;-54
2023/09/10 02:38:14;;;;;;;;;;;;;;;;;;1046568;28;3447;-52
2023/09/10 02:38:44;;;;;;;;;;;;;;;;;;1044526;28;4373;-54
2023/09/10 02:39:15;;;;;;;;;;;;;;;;;;1045931;28;3130;-55
2023/09/10 02:39:45;;;;;;;;;;;;;;;;;;1044026;28;3940;-56
2023/09/10 02:40:15;;;;;;;;;;;;;;;;;;1045883;28;3396;-55
2023/09/10 02:40:46;;;;;;;;;;;;;;;;;;1046157;28;3818;-54
2023/09/10 02:41:16;;;;;;;;;;;;;;;;;;1047328;28;1616;-51
2023/09/10 02:41:48;;;;;;;;;;;;;;;;;;1045924;28;4062;-54
2023/09/10 02:42:18;;;;;;;;;;;;;;;;;;1045830;28;3206;-52
2023/09/10 02:42:48;;;;;;;;;;;;;;;;;;1047456;28;4012;-55
2023/09/10 02:43:19;;;;;;;;;;;;;;;;;;1046409;28;2817;-51
2023/09/10 02:43:49;;;;;;;;;;;;;;;;;;1044841;28;4031;-54
2023/09/10 02:44:19;;;;;;;;;;;;;;;;;;1046559;28;1774;-53
2023/09/10 02:44:49;;;;;;;;;;;;;;;;;;1045973;28;3841;-52
2023/09/10 02:45:20;;;;;;;;;;;;;;;;;;1044270;28;3525;-51
2023/09/10 02:45:50;;;;;;;;;;;;;;;;;;1047017;28;4109;-52
2023/09/10 02:46:20;;;;;;;;;;;;;;;;;;1046206;28;3286;-56
2023/09/10 02:46:52;;;;;;;;;;;;;;;;;;1045522;28;3837;-52
2023/09/10 02:47:22;;;;;;;;;;;;;;;;;;1046239;28;3008;-51
2023/09/10 02:47:52;;;;;;;;;;;;;;;;;;1046716;28;3808;-55
2023/09/10 02:48:23;;;;;;;;;;;;;;;;;;1045749;28;3143;-55
2023/09/10 02:48:53;;;;;;;;;;;;;;;;;;1045823;28;4130;-52
2023/09/10 02:49:24;;;;;;;;;;;;;;;;;;1046607;28;3206;-55
2023/09/10 02:49:55;;;;;;;;;;;;;;;;;;1046139;28;3820;-52
2023/09/10 02:50:25;;;;;;;;;;;;;;;;;;1045230;28;3349;-53
2023/09/10 02:50:55;;;;;;;;;;;;;;;;;;1045052;28;4008;-51
2023/09/10 02:51:27;;;;;;;;;;;;;;;;;;1048309;28;1814;-56
2023/09/10 02:51:57;;;;;;;;;;;;;;;;;;1046902;28;4484;-51
2023/09/10 02:52:30;;;;;;;;;;;;;;;;;;1045738;28;3097;-52
2023/09/10 02:53:00;;;;;;;;;;;;;;;;;;1048128;28;3852;-51
2023/09/10 02:53:31;;;;;;;;;;;;;;;;;;1046187;28;1760;-51
2023/09/10 02:54:01;;;;;;;;;;;;;;;;;;1041705;28;3695;-55
2023/09/10 02:54:33;;;;;;;;;;;;;;;;;;1043015;28;4066;-54
2023/09/10 02:55:03;;;;;;;;;;;;;;;;;;1046962;28;3119;-53
2023/09/10 02:55:34;;;;;;;;;;;;;;;;;;1047152;28;4013;-56
2023/09/10 02:56:04;;;;;;;;;;;;;;;;;;1048252;28;1686;-53
2023/09/10 02:56:34;;;;;;;;;;;;;;;;;;1045041;28;3855;-55
2023/09/10 02:57:04;;;;;;;;;;;;;;;;;;1047978;28;3395;-52
2023/09/10 02:57:35;;;;;;;;;;;;;;;;;;1046231;28;4091;-49
2023/09/10 02:58:06;;;;;;;;;;;;;;;;;;1047259;28;1898;-50
2023/09/10 02:58:36;;;;;;;;;;;;;;;;;;1047896;28;4021;-54
2023/09/10 02:59:06;;;;;;;;;;;;;;;;;;1047246;28;2383;-54
2023/09/10 02:59:36;;;;;;;;;;;;;;;;;;1046953;28;3927;-55
2023/09/10 03:00:07;;;;;;;;;;;;;;;;;;1044845;28;3435;-51
2023/09/10 03:00:37;;;;;;;;;;;;;;;;;;1046405;28;3746;-52
2023/09/10 03:01:08;;;;;;;;;;;;;;;;;;1047160;28;2868;-53
2023/09/10 03:01:38;;;;;;;;;;;;;;;;;;1046027;28;4363;-55
2023/09/10 03:02:08;;;;;;;;;;;;;;;;;;1047887;28;1608;-52
2023/09/10 03:02:38;;;;;;;;;;;;;;;;;;1045296;28;4410;-51
2023/09/10 03:03:09;;;;;;;;;;;;;;;;;;1046687;28;3079;-51
2023/09/10 03:03:39;;;;;;;;;;;;;;;;;;1045806;28;3991;-54
2023/09/10 03:04:09;;;;;;;;;;;;;;;;;;1048354;28;1892;-54
2023/09/10 03:04:39;;;;;;;;;;;;;;;;;;1045894;28;4019;-54
2023/09/10 03:05:10;;;;;;;;;;;;;;;;;;1045077;28;3460;-53
2023/09/10 03:05:40;;;;;;;;;;;;;;;;;;1046797;28;4408;-51
2023/09/10 03:06:12;;;;;;;;;;;;;;;;;;1048122;28;1738;-53
2023/09/10 03:06:43;;;;;;;;;;;;;;;;;;1045299;28;3770;-53
2023/09/10 03:07:13;;;;;;;;;;;;;;;;;;1050863;28;3321;-53
2023/09/10 03:07:43;;;;;;;;;;;;;;;;;;1047852;28;4463;-51
2023/09/10 03:08:14;;;;;;;;;;;;;;;;;;1045645;28;3115;-58
2023/09/10 03:08:44;;;;;;;;;;;;;;;;;;1046157;28;4035;-53
2023/09/10 03:09:15;;;;;;;;;;;;;;;;;;1042483;28;2976;-55
2023/09/10 03:09:45;;;;;;;;;;;;;;;;;;1041395;28;4029;-53
2023/09/10 03:10:15;;;;;;;;;;;;;;;;;;1043761;28;1390;-50
2023/09/10 03:10:46;;;;;;;;;;;;;;;;;;1042948;28;3834;-55
2023/09/10 03:11:16;;;;;;;;;;;;;;;;;;1046874;28;3075;-50
2023/09/10 03:11:46;;;;;;;;;;;;;;;;;;1047216;28;3950;-54
2023/09/10 03:12:25;;;;;;;;;;;;;;;;;;1045121;28;3121;-54
2023/09/10 03:12:55;;;;;;;;;;;;;;;;;;1044943;28;4433;-53
2023/09/10 03:13:25;;;;;;;;;;;;;;;;;;1051079;28;1743;-53
2023/09/10 03:13:55;;;;;;;;;;;;;;;;;;1050511;28;3779;-58
2023/09/10 03:14:26;;;;;;;;;;;;;;;;;;1046913;28;2047;-50
2023/09/10 03:14:56;;;;;;;;;;;;;;;;;;1046299;28;3947;-52
2023/09/10 03:15:26;;;;;;;;;;;;;;;;;;1039567;28;3165;-56
2023/09/10 03:15:56;;;;;;;;;;;;;;;;;;1042810;28;3810;-52
2023/09/10 03:16:27;;;;;;;;;;;;;;;;;;1040987;28;3339;-51
2023/09/10 03:16:58;;;;;;;;;;;;;;;;;;1039689;28;3732;-55
2023/09/10 03:17:28;;;;;;;;;;;;;;;;;;1039738;28;3175;-48
2023/09/10 03:17:59;;;;;;;;;;;;;;;;;;1040789;28;3904;-51
2023/09/10 03:18:29;;;;;;;;;;;;;;;;;;1047119;28;2798;-52
2023/09/10 03:18:59;;;;;;;;;;;;;;;;;;1044932;28;3924;-53
2023/09/10 03:19:30;;;;;;;;;;;;;;;;;;1047520;28;3236;-55
2023/09/10 03:20:00;;;;;;;;;;;;;;;;;;1044413;28;3756;-53
2023/09/10 03:20:31;;;;;;;;;;;;;;;;;;1046217;28;3606;-53
2023/09/10 03:21:03;;;;;;;;;;;;;;;;;;1045875;28;3890;-52
2023/09/10 03:21:35;;;;;;;;;;;;;;;;;;1047841;28;4332;-52
2023/09/10 03:22:05;;;;;;;;;;;;;;;;;;1045956;28;2798;-55
2023/09/10 03:22:38;;;;;;;;;;;;;;;;;;1045657;28;4148;-50
2023/09/10 03:23:09;;;;;;;;;;;;;;;;;;1043360;28;2981;-54
2023/09/10 03:23:39;;;;;;;;;;;;;;;;;;1044753;28;3894;-53
2023/09/10 03:24:09;;;;;;;;;;;;;;;;;;1047106;28;3163;-48
2023/09/10 03:24:40;;;;;;;;;;;;;;;;;;1046741;28;3995;-51
2023/09/10 03:25:10;;;;;;;;;;;;;;;;;;1044670;28;3266;-50
2023/09/10 03:25:40;;;;;;;;;;;;;;;;;;1048753;28;4134;-49
2023/09/10 03:26:14;;;;;;;;;;;;;;;;;;1048315;28;1410;-52
2023/09/10 03:26:44;;;;;;;;;;;;;;;;;;1044938;28;4034;-52
2023/09/10 03:27:14;;;;;;;;;;;;;;;;;;1047447;28;3133;-54
2023/09/10 03:27:44;;;;;;;;;;;;;;;;;;1047095;28;4365;-52
2023/09/10 03:28:15;;;;;;;;;;;;;;;;;;1047163;28;1959;-55
2023/09/10 03:28:45;;;;;;;;;;;;;;;;;;1045835;28;4022;-52
2023/09/10 03:29:15;;;;;;;;;;;;;;;;;;1048050;28;3766;-52
2023/09/10 03:29:45;;;;;;;;;;;;;;;;;;1047093;28;4022;-52
2023/09/10 03:30:16;;;;;;;;;;;;;;;;;;1043285;28;3180;-51
2023/09/10 03:30:46;;;;;;;;;;;;;;;;;;1041678;28;4095;-49
2023/09/10 03:31:17;;;;;;;;;;;;;;;;;;1042562;28;1838;-54
2023/09/10 03:31:47;;;;;;;;;;;;;;;;;;1041133;28;4212;-53
2023/09/10 03:32:18;;;;;;;;;;;;;;;;;;1045682;28;3143;-50
2023/09/10 03:32:51;;;;;;;;;;;;;;;;;;1047931;28;4409;-55
2023/09/10 03:33:21;;;;;;;;;;;;;;;;;;1045937;28;3216;-53
2023/09/10 03:33:52;;;;;;;;;;;;;;;;;;1046324;28;3932;-52
2023/09/10 03:34:22;;;;;;;;;;;;;;;;;;1046226;28;3061;-55
2023/09/10 03:34:52;;;;;;;;;;;;;;;;;;1047598;28;3945;-52
2023/09/10 03:35:23;;;;;;;;;;;;;;;;;;1045258;28;3118;-56
2023/09/10 03:35:53;;;;;;;;;;;;;;;;;;1047554;28;4094;-53
2023/09/10 03:36:23;;;;;;;;;;;;;;;;;;1047204;28;2122;-53
2023/09/10 03:36:54;;;;;;;;;;;;;;;;;;1046314;28;3988;-53
2023/09/10 03:37:24;;;;;;;;;;;;;;;;;;1044425;28;3146;-51